sensor_id;sensor_type;location;lat;lon;timestamp;P1;durP1;ratioP1;P2;durP2;ratioP2
46815;SDS011;32787;53.316;8.670;2022-10-26T00:02:08;10.75;;;5.07;;
46815;SDS011;32787;53.316;8.670;2022-10-26T00:04:34;11.15;;;5.47;;
46815;SDS011;32787;53.316;8.670;2022-10-26T00:06:59;15.98;;;6.47;;
46815;SDS011;32787;53.316;8.670;2022-10-26T00:09:25;10.60;;;5.60;;
46815;SDS011;32787;53.316;8.670;2022-10-26T00:11:51;11.77;;;5.65;;
46815;SDS011;32787;53.316;8.670;2022-10-26T00:14:17;10.95;;;4.78;;
46815;SDS011;32787;53.316;8.670;2022-10-26T00:16:43;9.30;;;4.90;;
46815;SDS011;32787;53.316;8.670;2022-10-26T00:19:08;11.65;;;6.28;;
46815;SDS011;32787;53.316;8.670;2022-10-26T00:21:34;10.88;;;5.50;;
46815;SDS011;32787;53.316;8.670;2022-10-26T00:23:59;15.15;;;6.07;;
46815;SDS011;32787;53.316;8.670;2022-10-26T00:26:25;12.52;;;7.05;;
46815;SDS011;32787;53.316;8.670;2022-10-26T00:28:54;12.93;;;6.60;;
46815;SDS011;32787;53.316;8.670;2022-10-26T00:33:46;15.88;;;7.53;;
46815;SDS011;32787;53.316;8.670;2022-10-26T00:36:15;15.05;;;6.55;;
46815;SDS011;32787;53.316;8.670;2022-10-26T00:38:42;11.30;;;6.30;;
46815;SDS011;32787;53.316;8.670;2022-10-26T00:41:13;10.45;;;5.80;;
46815;SDS011;32787;53.316;8.670;2022-10-26T00:43:40;15.80;;;6.70;;
46815;SDS011;32787;53.316;8.670;2022-10-26T00:46:07;16.42;;;6.43;;
46815;SDS011;32787;53.316;8.670;2022-10-26T00:48:44;9.15;;;5.18;;
46815;SDS011;32787;53.316;8.670;2022-10-26T00:51:14;10.93;;;5.10;;
46815;SDS011;32787;53.316;8.670;2022-10-26T00:54:06;10.73;;;5.57;;
46815;SDS011;32787;53.316;8.670;2022-10-26T00:56:35;9.20;;;5.25;;
46815;SDS011;32787;53.316;8.670;2022-10-26T00:59:03;9.57;;;5.35;;
46815;SDS011;32787;53.316;8.670;2022-10-26T01:01:32;9.30;;;4.88;;
46815;SDS011;32787;53.316;8.670;2022-10-26T01:03:58;11.77;;;5.32;;
46815;SDS011;32787;53.316;8.670;2022-10-26T01:06:25;12.50;;;5.25;;
46815;SDS011;32787;53.316;8.670;2022-10-26T01:08:55;9.68;;;4.97;;
46815;SDS011;32787;53.316;8.670;2022-10-26T01:11:21;11.52;;;5.72;;
46815;SDS011;32787;53.316;8.670;2022-10-26T01:13:47;13.48;;;5.97;;
46815;SDS011;32787;53.316;8.670;2022-10-26T01:19:15;14.98;;;7.07;;
46815;SDS011;32787;53.316;8.670;2022-10-26T01:24:37;14.35;;;8.05;;
46815;SDS011;32787;53.316;8.670;2022-10-26T01:30:13;15.35;;;8.43;;
46815;SDS011;32787;53.316;8.670;2022-10-26T01:32:51;18.85;;;9.02;;
46815;SDS011;32787;53.316;8.670;2022-10-26T01:38:15;19.63;;;9.40;;
46815;SDS011;32787;53.316;8.670;2022-10-26T01:41:04;15.68;;;8.70;;
46815;SDS011;32787;53.316;8.670;2022-10-26T01:43:39;20.38;;;9.82;;
46815;SDS011;32787;53.316;8.670;2022-10-26T01:46:09;16.00;;;8.73;;
46815;SDS011;32787;53.316;8.670;2022-10-26T01:48:36;18.13;;;8.57;;
46815;SDS011;32787;53.316;8.670;2022-10-26T01:51:03;16.70;;;9.15;;
46815;SDS011;32787;53.316;8.670;2022-10-26T01:53:32;13.80;;;8.30;;
46815;SDS011;32787;53.316;8.670;2022-10-26T01:55:57;17.08;;;8.93;;
46815;SDS011;32787;53.316;8.670;2022-10-26T02:04:04;16.17;;;7.80;;
46815;SDS011;32787;53.316;8.670;2022-10-26T02:12:16;27.60;;;10.55;;
46815;SDS011;32787;53.316;8.670;2022-10-26T02:14:56;18.27;;;9.00;;
46815;SDS011;32787;53.316;8.670;2022-10-26T02:17:38;19.60;;;9.35;;
46815;SDS011;32787;53.316;8.670;2022-10-26T02:20:21;24.80;;;10.20;;
46815;SDS011;32787;53.316;8.670;2022-10-26T02:22:57;23.52;;;9.30;;
46815;SDS011;32787;53.316;8.670;2022-10-26T02:25:29;18.10;;;9.25;;
46815;SDS011;32787;53.316;8.670;2022-10-26T02:28:01;18.23;;;8.55;;
46815;SDS011;32787;53.316;8.670;2022-10-26T02:30:32;25.88;;;9.02;;
46815;SDS011;32787;53.316;8.670;2022-10-26T02:32:59;30.35;;;8.18;;
46815;SDS011;32787;53.316;8.670;2022-10-26T02:35:30;15.52;;;8.07;;
46815;SDS011;32787;53.316;8.670;2022-10-26T02:38:00;24.40;;;7.53;;
46815;SDS011;32787;53.316;8.670;2022-10-26T02:40:29;65.38;;;9.65;;
46815;SDS011;32787;53.316;8.670;2022-10-26T02:42:58;22.15;;;8.85;;
46815;SDS011;32787;53.316;8.670;2022-10-26T02:45:30;46.60;;;6.85;;
46815;SDS011;32787;53.316;8.670;2022-10-26T02:48:00;25.35;;;6.53;;
46815;SDS011;32787;53.316;8.670;2022-10-26T02:50:28;17.08;;;7.15;;
46815;SDS011;32787;53.316;8.670;2022-10-26T02:55:45;18.10;;;6.78;;
46815;SDS011;32787;53.316;8.670;2022-10-26T02:58:15;15.82;;;7.68;;
46815;SDS011;32787;53.316;8.670;2022-10-26T03:00:46;24.88;;;7.05;;
46815;SDS011;32787;53.316;8.670;2022-10-26T03:03:13;15.63;;;7.40;;
46815;SDS011;32787;53.316;8.670;2022-10-26T03:05:41;13.07;;;7.22;;
46815;SDS011;32787;53.316;8.670;2022-10-26T03:08:07;20.10;;;9.57;;
46815;SDS011;32787;53.316;8.670;2022-10-26T03:10:33;22.75;;;11.25;;
46815;SDS011;32787;53.316;8.670;2022-10-26T03:13:03;23.08;;;11.18;;
46815;SDS011;32787;53.316;8.670;2022-10-26T03:15:29;24.05;;;11.32;;
46815;SDS011;32787;53.316;8.670;2022-10-26T03:17:54;21.88;;;10.90;;
46815;SDS011;32787;53.316;8.670;2022-10-26T03:20:20;19.20;;;10.00;;
46815;SDS011;32787;53.316;8.670;2022-10-26T03:22:46;21.63;;;10.95;;
46815;SDS011;32787;53.316;8.670;2022-10-26T03:25:12;20.52;;;10.82;;
46815;SDS011;32787;53.316;8.670;2022-10-26T03:27:39;21.08;;;9.90;;
46815;SDS011;32787;53.316;8.670;2022-10-26T03:30:05;23.02;;;10.85;;
46815;SDS011;32787;53.316;8.670;2022-10-26T03:32:31;24.98;;;12.52;;
46815;SDS011;32787;53.316;8.670;2022-10-26T03:34:57;26.48;;;13.35;;
46815;SDS011;32787;53.316;8.670;2022-10-26T03:37:23;31.52;;;14.48;;
46815;SDS011;32787;53.316;8.670;2022-10-26T03:39:48;27.27;;;13.60;;
46815;SDS011;32787;53.316;8.670;2022-10-26T03:42:14;28.17;;;14.13;;
46815;SDS011;32787;53.316;8.670;2022-10-26T03:44:39;26.58;;;14.32;;
46815;SDS011;32787;53.316;8.670;2022-10-26T03:47:05;32.15;;;15.43;;
46815;SDS011;32787;53.316;8.670;2022-10-26T03:49:30;29.42;;;14.13;;
46815;SDS011;32787;53.316;8.670;2022-10-26T03:51:56;35.45;;;15.98;;
46815;SDS011;32787;53.316;8.670;2022-10-26T03:54:22;31.60;;;15.32;;
46815;SDS011;32787;53.316;8.670;2022-10-26T03:56:47;36.70;;;16.75;;
46815;SDS011;32787;53.316;8.670;2022-10-26T03:59:13;33.00;;;16.83;;
46815;SDS011;32787;53.316;8.670;2022-10-26T04:01:38;31.70;;;16.83;;
46815;SDS011;32787;53.316;8.670;2022-10-26T04:04:04;31.83;;;15.85;;
46815;SDS011;32787;53.316;8.670;2022-10-26T04:06:30;28.05;;;15.25;;
46815;SDS011;32787;53.316;8.670;2022-10-26T04:08:55;29.60;;;15.13;;
46815;SDS011;32787;53.316;8.670;2022-10-26T04:11:26;28.90;;;15.25;;
46815;SDS011;32787;53.316;8.670;2022-10-26T04:13:54;30.42;;;15.30;;
46815;SDS011;32787;53.316;8.670;2022-10-26T04:16:23;30.05;;;16.65;;
46815;SDS011;32787;53.316;8.670;2022-10-26T04:18:49;33.22;;;18.45;;
46815;SDS011;32787;53.316;8.670;2022-10-26T04:21:15;35.60;;;18.08;;
46815;SDS011;32787;53.316;8.670;2022-10-26T04:23:40;30.33;;;16.27;;
46815;SDS011;32787;53.316;8.670;2022-10-26T04:26:06;33.75;;;16.58;;
46815;SDS011;32787;53.316;8.670;2022-10-26T04:28:32;32.95;;;16.73;;
46815;SDS011;32787;53.316;8.670;2022-10-26T04:30:58;36.67;;;19.65;;
46815;SDS011;32787;53.316;8.670;2022-10-26T04:33:23;40.05;;;18.92;;
46815;SDS011;32787;53.316;8.670;2022-10-26T04:35:49;38.38;;;18.95;;
46815;SDS011;32787;53.316;8.670;2022-10-26T04:38:15;35.60;;;18.48;;
46815;SDS011;32787;53.316;8.670;2022-10-26T04:40:40;32.47;;;17.75;;
46815;SDS011;32787;53.316;8.670;2022-10-26T04:43:06;40.45;;;19.10;;
46815;SDS011;32787;53.316;8.670;2022-10-26T04:45:32;36.97;;;19.25;;
46815;SDS011;32787;53.316;8.670;2022-10-26T04:47:58;37.20;;;18.88;;
46815;SDS011;32787;53.316;8.670;2022-10-26T04:50:29;32.78;;;17.40;;
46815;SDS011;32787;53.316;8.670;2022-10-26T04:52:54;32.63;;;17.02;;
46815;SDS011;32787;53.316;8.670;2022-10-26T04:55:20;39.10;;;21.13;;
46815;SDS011;32787;53.316;8.670;2022-10-26T04:57:46;35.30;;;18.08;;
46815;SDS011;32787;53.316;8.670;2022-10-26T05:00:11;36.95;;;17.45;;
46815;SDS011;32787;53.316;8.670;2022-10-26T05:02:37;32.65;;;17.40;;
46815;SDS011;32787;53.316;8.670;2022-10-26T05:05:03;31.40;;;16.95;;
46815;SDS011;32787;53.316;8.670;2022-10-26T05:07:29;29.55;;;16.27;;
46815;SDS011;32787;53.316;8.670;2022-10-26T05:09:54;27.80;;;15.30;;
46815;SDS011;32787;53.316;8.670;2022-10-26T05:12:20;28.58;;;15.07;;
46815;SDS011;32787;53.316;8.670;2022-10-26T05:14:45;25.98;;;14.82;;
46815;SDS011;32787;53.316;8.670;2022-10-26T05:17:11;27.40;;;15.23;;
46815;SDS011;32787;53.316;8.670;2022-10-26T05:19:37;29.58;;;14.88;;
46815;SDS011;32787;53.316;8.670;2022-10-26T05:22:02;27.58;;;14.43;;
46815;SDS011;32787;53.316;8.670;2022-10-26T05:24:28;29.73;;;14.43;;
46815;SDS011;32787;53.316;8.670;2022-10-26T05:26:53;29.33;;;14.35;;
46815;SDS011;32787;53.316;8.670;2022-10-26T05:29:19;24.77;;;13.85;;
46815;SDS011;32787;53.316;8.670;2022-10-26T05:31:45;25.38;;;13.05;;
46815;SDS011;32787;53.316;8.670;2022-10-26T05:34:10;22.38;;;12.70;;
46815;SDS011;32787;53.316;8.670;2022-10-26T05:36:36;24.90;;;13.95;;
46815;SDS011;32787;53.316;8.670;2022-10-26T05:39:01;22.27;;;13.35;;
46815;SDS011;32787;53.316;8.670;2022-10-26T05:41:27;29.10;;;15.20;;
46815;SDS011;32787;53.316;8.670;2022-10-26T05:43:53;30.35;;;15.50;;
46815;SDS011;32787;53.316;8.670;2022-10-26T05:46:18;34.28;;;15.95;;
46815;SDS011;32787;53.316;8.670;2022-10-26T05:48:44;31.05;;;15.80;;
46815;SDS011;32787;53.316;8.670;2022-10-26T05:51:09;34.13;;;16.23;;
46815;SDS011;32787;53.316;8.670;2022-10-26T05:53:36;26.80;;;15.35;;
46815;SDS011;32787;53.316;8.670;2022-10-26T05:56:02;27.27;;;14.65;;
46815;SDS011;32787;53.316;8.670;2022-10-26T06:01:12;27.67;;;15.23;;
46815;SDS011;32787;53.316;8.670;2022-10-26T06:06:59;30.15;;;14.75;;
46815;SDS011;32787;53.316;8.670;2022-10-26T06:09:25;26.08;;;15.05;;
46815;SDS011;32787;53.316;8.670;2022-10-26T06:11:51;29.35;;;15.65;;
46815;SDS011;32787;53.316;8.670;2022-10-26T06:14:17;27.80;;;14.25;;
46815;SDS011;32787;53.316;8.670;2022-10-26T06:17:00;25.58;;;13.23;;
46815;SDS011;32787;53.316;8.670;2022-10-26T06:27:11;31.65;;;14.85;;
46815;SDS011;32787;53.316;8.670;2022-10-26T06:32:18;27.20;;;14.70;;
46815;SDS011;32787;53.316;8.670;2022-10-26T06:34:47;27.30;;;14.45;;
46815;SDS011;32787;53.316;8.670;2022-10-26T06:37:16;26.75;;;14.30;;
46815;SDS011;32787;53.316;8.670;2022-10-26T06:39:44;27.00;;;13.73;;
46815;SDS011;32787;53.316;8.670;2022-10-26T06:42:11;28.58;;;15.15;;
46815;SDS011;32787;53.316;8.670;2022-10-26T06:44:37;30.10;;;14.98;;
46815;SDS011;32787;53.316;8.670;2022-10-26T06:52:52;28.60;;;14.00;;
46815;SDS011;32787;53.316;8.670;2022-10-26T06:55:28;29.10;;;14.30;;
46815;SDS011;32787;53.316;8.670;2022-10-26T06:58:01;31.27;;;13.38;;
46815;SDS011;32787;53.316;8.670;2022-10-26T07:00:28;28.63;;;14.85;;
46815;SDS011;32787;53.316;8.670;2022-10-26T07:02:54;26.60;;;14.45;;
46815;SDS011;32787;53.316;8.670;2022-10-26T07:05:22;28.08;;;14.38;;
46815;SDS011;32787;53.316;8.670;2022-10-26T07:07:47;28.65;;;13.13;;
46815;SDS011;32787;53.316;8.670;2022-10-26T07:10:13;25.08;;;13.02;;
46815;SDS011;32787;53.316;8.670;2022-10-26T07:12:40;25.52;;;12.95;;
46815;SDS011;32787;53.316;8.670;2022-10-26T07:15:05;30.52;;;13.07;;
46815;SDS011;32787;53.316;8.670;2022-10-26T07:17:53;25.88;;;12.00;;
46815;SDS011;32787;53.316;8.670;2022-10-26T07:20:19;25.55;;;12.95;;
46815;SDS011;32787;53.316;8.670;2022-10-26T07:22:50;27.55;;;13.88;;
46815;SDS011;32787;53.316;8.670;2022-10-26T07:25:19;27.48;;;14.65;;
46815;SDS011;32787;53.316;8.670;2022-10-26T07:27:45;30.27;;;12.75;;
46815;SDS011;32787;53.316;8.670;2022-10-26T07:30:11;28.00;;;13.65;;
46815;SDS011;32787;53.316;8.670;2022-10-26T07:32:37;23.35;;;11.73;;
46815;SDS011;32787;53.316;8.670;2022-10-26T07:35:02;25.45;;;13.70;;
46815;SDS011;32787;53.316;8.670;2022-10-26T07:37:28;24.95;;;12.27;;
46815;SDS011;32787;53.316;8.670;2022-10-26T07:39:54;25.85;;;12.70;;
46815;SDS011;32787;53.316;8.670;2022-10-26T07:42:20;23.52;;;13.45;;
46815;SDS011;32787;53.316;8.670;2022-10-26T07:44:45;25.30;;;12.45;;
46815;SDS011;32787;53.316;8.670;2022-10-26T07:47:11;27.27;;;14.10;;
46815;SDS011;32787;53.316;8.670;2022-10-26T07:49:36;25.45;;;13.15;;
46815;SDS011;32787;53.316;8.670;2022-10-26T07:52:02;24.50;;;13.13;;
46815;SDS011;32787;53.316;8.670;2022-10-26T07:54:28;23.00;;;12.00;;
46815;SDS011;32787;53.316;8.670;2022-10-26T07:56:53;25.63;;;12.93;;
46815;SDS011;32787;53.316;8.670;2022-10-26T07:59:19;20.65;;;12.23;;
46815;SDS011;32787;53.316;8.670;2022-10-26T08:01:45;24.25;;;12.95;;
46815;SDS011;32787;53.316;8.670;2022-10-26T08:04:10;25.17;;;12.40;;
46815;SDS011;32787;53.316;8.670;2022-10-26T08:06:36;25.40;;;12.02;;
46815;SDS011;32787;53.316;8.670;2022-10-26T08:09:02;21.38;;;11.75;;
46815;SDS011;32787;53.316;8.670;2022-10-26T08:11:27;19.67;;;11.55;;
46815;SDS011;32787;53.316;8.670;2022-10-26T08:13:53;22.02;;;12.00;;
46815;SDS011;32787;53.316;8.670;2022-10-26T08:16:19;21.60;;;12.07;;
46815;SDS011;32787;53.316;8.670;2022-10-26T08:18:49;20.25;;;10.80;;
46815;SDS011;32787;53.316;8.670;2022-10-26T08:21:15;19.80;;;10.98;;
46815;SDS011;32787;53.316;8.670;2022-10-26T08:23:42;19.25;;;10.77;;
46815;SDS011;32787;53.316;8.670;2022-10-26T08:26:08;21.95;;;11.63;;
46815;SDS011;32787;53.316;8.670;2022-10-26T08:28:37;23.30;;;11.65;;
46815;SDS011;32787;53.316;8.670;2022-10-26T08:31:04;20.95;;;11.05;;
46815;SDS011;32787;53.316;8.670;2022-10-26T08:33:30;21.02;;;11.20;;
46815;SDS011;32787;53.316;8.670;2022-10-26T08:35:59;19.13;;;10.40;;
46815;SDS011;32787;53.316;8.670;2022-10-26T08:38:26;23.33;;;11.40;;
46815;SDS011;32787;53.316;8.670;2022-10-26T08:40:52;23.63;;;11.77;;
46815;SDS011;32787;53.316;8.670;2022-10-26T08:48:34;22.25;;;11.48;;
46815;SDS011;32787;53.316;8.670;2022-10-26T08:51:07;21.27;;;10.65;;
46815;SDS011;32787;53.316;8.670;2022-10-26T08:56:21;19.02;;;10.43;;
46815;SDS011;32787;53.316;8.670;2022-10-26T08:59:13;20.70;;;10.63;;
46815;SDS011;32787;53.316;8.670;2022-10-26T09:01:35;19.17;;;10.27;;
46815;SDS011;32787;53.316;8.670;2022-10-26T09:04:01;20.20;;;10.25;;
46815;SDS011;32787;53.316;8.670;2022-10-26T09:06:38;23.02;;;10.13;;
46815;SDS011;32787;53.316;8.670;2022-10-26T09:12:16;21.48;;;10.18;;
46815;SDS011;32787;53.316;8.670;2022-10-26T09:15:13;16.85;;;8.40;;
46815;SDS011;32787;53.316;8.670;2022-10-26T09:26:01;16.57;;;9.33;;
46815;SDS011;32787;53.316;8.670;2022-10-26T09:28:29;18.85;;;9.48;;
46815;SDS011;32787;53.316;8.670;2022-10-26T09:30:59;20.02;;;8.88;;
46815;SDS011;32787;53.316;8.670;2022-10-26T09:33:26;16.08;;;8.18;;
46815;SDS011;32787;53.316;8.670;2022-10-26T09:35:56;16.27;;;9.15;;
46815;SDS011;32787;53.316;8.670;2022-10-26T09:38:45;16.60;;;9.00;;
46815;SDS011;32787;53.316;8.670;2022-10-26T09:43:54;18.48;;;9.23;;
46815;SDS011;32787;53.316;8.670;2022-10-26T09:46:48;17.60;;;9.57;;
46815;SDS011;32787;53.316;8.670;2022-10-26T09:49:17;20.27;;;9.98;;
46815;SDS011;32787;53.316;8.670;2022-10-26T09:51:45;19.42;;;10.18;;
46815;SDS011;32787;53.316;8.670;2022-10-26T09:54:13;17.15;;;9.55;;
46815;SDS011;32787;53.316;8.670;2022-10-26T09:56:41;16.35;;;8.85;;
46815;SDS011;32787;53.316;8.670;2022-10-26T09:59:21;19.48;;;9.27;;
46815;SDS011;32787;53.316;8.670;2022-10-26T10:01:48;17.17;;;10.23;;
46815;SDS011;32787;53.316;8.670;2022-10-26T10:06:45;19.55;;;9.40;;
46815;SDS011;32787;53.316;8.670;2022-10-26T10:09:19;16.40;;;9.13;;
46815;SDS011;32787;53.316;8.670;2022-10-26T10:11:55;13.48;;;7.78;;
46815;SDS011;32787;53.316;8.670;2022-10-26T10:14:30;16.00;;;8.48;;
46815;SDS011;32787;53.316;8.670;2022-10-26T10:21:55;14.02;;;7.45;;
46815;SDS011;32787;53.316;8.670;2022-10-26T10:27:15;16.45;;;6.93;;
46815;SDS011;32787;53.316;8.670;2022-10-26T10:29:49;14.55;;;7.70;;
46815;SDS011;32787;53.316;8.670;2022-10-26T10:34:50;15.45;;;7.53;;
46815;SDS011;32787;53.316;8.670;2022-10-26T10:39:57;12.15;;;6.75;;
46815;SDS011;32787;53.316;8.670;2022-10-26T10:42:30;13.43;;;6.68;;
46815;SDS011;32787;53.316;8.670;2022-10-26T10:44:58;12.95;;;7.00;;
46815;SDS011;32787;53.316;8.670;2022-10-26T10:47:27;15.60;;;6.57;;
46815;SDS011;32787;53.316;8.670;2022-10-26T10:50:02;13.27;;;6.45;;
46815;SDS011;32787;53.316;8.670;2022-10-26T10:52:40;13.20;;;5.90;;
46815;SDS011;32787;53.316;8.670;2022-10-26T11:00:14;11.68;;;5.93;;
46815;SDS011;32787;53.316;8.670;2022-10-26T11:05:53;11.82;;;6.10;;
46815;SDS011;32787;53.316;8.670;2022-10-26T11:11:17;13.25;;;6.20;;
46815;SDS011;32787;53.316;8.670;2022-10-26T11:13:52;9.75;;;6.20;;
46815;SDS011;32787;53.316;8.670;2022-10-26T11:16:24;11.40;;;5.47;;
46815;SDS011;32787;53.316;8.670;2022-10-26T11:21:33;11.73;;;5.38;;
46815;SDS011;32787;53.316;8.670;2022-10-26T11:26:50;9.88;;;5.63;;
46815;SDS011;32787;53.316;8.670;2022-10-26T11:29:25;12.25;;;5.00;;
46815;SDS011;32787;53.316;8.670;2022-10-26T11:31:54;13.52;;;5.15;;
46815;SDS011;32787;53.316;8.670;2022-10-26T11:37:01;10.38;;;5.10;;
46815;SDS011;32787;53.316;8.670;2022-10-26T11:39:35;7.95;;;4.32;;
46815;SDS011;32787;53.316;8.670;2022-10-26T11:42:10;9.25;;;4.13;;
46815;SDS011;32787;53.316;8.670;2022-10-26T11:44:53;8.98;;;3.95;;
46815;SDS011;32787;53.316;8.670;2022-10-26T11:47:22;12.07;;;4.28;;
46815;SDS011;32787;53.316;8.670;2022-10-26T11:50:02;9.32;;;4.75;;
46815;SDS011;32787;53.316;8.670;2022-10-26T11:52:57;10.93;;;4.50;;
46815;SDS011;32787;53.316;8.670;2022-10-26T11:55:28;11.35;;;4.90;;
46815;SDS011;32787;53.316;8.670;2022-10-26T11:57:54;10.70;;;4.75;;
46815;SDS011;32787;53.316;8.670;2022-10-26T12:00:22;13.75;;;6.03;;
46815;SDS011;32787;53.316;8.670;2022-10-26T12:03:01;14.38;;;5.32;;
46815;SDS011;32787;53.316;8.670;2022-10-26T12:08:05;11.38;;;5.55;;
46815;SDS011;32787;53.316;8.670;2022-10-26T12:10:40;12.07;;;5.70;;
46815;SDS011;32787;53.316;8.670;2022-10-26T12:13:30;14.50;;;5.35;;
46815;SDS011;32787;53.316;8.670;2022-10-26T12:16:10;13.40;;;5.63;;
46815;SDS011;32787;53.316;8.670;2022-10-26T12:21:26;15.32;;;5.85;;
46815;SDS011;32787;53.316;8.670;2022-10-26T12:23:54;12.20;;;6.50;;
46815;SDS011;32787;53.316;8.670;2022-10-26T12:47:05;10.43;;;4.22;;
46815;SDS011;32787;53.316;8.670;2022-10-26T12:52:26;9.35;;;3.90;;
46815;SDS011;32787;53.316;8.670;2022-10-26T13:00:15;10.27;;;4.35;;
46815;SDS011;32787;53.316;8.670;2022-10-26T13:08:02;8.35;;;4.22;;
46815;SDS011;32787;53.316;8.670;2022-10-26T13:10:31;9.15;;;4.07;;
46815;SDS011;32787;53.316;8.670;2022-10-26T13:12:58;11.88;;;4.80;;
46815;SDS011;32787;53.316;8.670;2022-10-26T13:15:27;10.63;;;4.93;;
46815;SDS011;32787;53.316;8.670;2022-10-26T13:20:25;12.35;;;4.60;;
46815;SDS011;32787;53.316;8.670;2022-10-26T13:22:52;13.15;;;4.57;;
46815;SDS011;32787;53.316;8.670;2022-10-26T13:25:28;12.30;;;4.45;;
46815;SDS011;32787;53.316;8.670;2022-10-26T13:28:05;8.88;;;3.58;;
46815;SDS011;32787;53.316;8.670;2022-10-26T13:30:50;9.75;;;4.35;;
46815;SDS011;32787;53.316;8.670;2022-10-26T13:33:19;10.35;;;5.13;;
46815;SDS011;32787;53.316;8.670;2022-10-26T13:35:50;10.75;;;4.65;;
46815;SDS011;32787;53.316;8.670;2022-10-26T13:38:21;9.77;;;4.18;;
46815;SDS011;32787;53.316;8.670;2022-10-26T13:40:49;14.63;;;6.10;;
46815;SDS011;32787;53.316;8.670;2022-10-26T13:43:23;11.95;;;5.55;;
46815;SDS011;32787;53.316;8.670;2022-10-26T13:45:59;14.63;;;6.60;;
46815;SDS011;32787;53.316;8.670;2022-10-26T13:48:32;20.35;;;9.98;;
46815;SDS011;32787;53.316;8.670;2022-10-26T13:51:17;11.05;;;5.65;;
46815;SDS011;32787;53.316;8.670;2022-10-26T13:56:32;11.85;;;4.93;;
46815;SDS011;32787;53.316;8.670;2022-10-26T14:01:29;11.52;;;4.85;;
46815;SDS011;32787;53.316;8.670;2022-10-26T14:03:55;9.63;;;4.47;;
46815;SDS011;32787;53.316;8.670;2022-10-26T14:06:23;8.55;;;4.53;;
46815;SDS011;32787;53.316;8.670;2022-10-26T14:09:11;9.25;;;4.22;;
46815;SDS011;32787;53.316;8.670;2022-10-26T14:11:55;10.18;;;4.72;;
46815;SDS011;32787;53.316;8.670;2022-10-26T14:14:24;8.35;;;4.05;;
46815;SDS011;32787;53.316;8.670;2022-10-26T14:16:56;10.63;;;4.05;;
46815;SDS011;32787;53.316;8.670;2022-10-26T14:21:59;10.93;;;4.15;;
46815;SDS011;32787;53.316;8.670;2022-10-26T14:24:29;7.45;;;3.50;;
46815;SDS011;32787;53.316;8.670;2022-10-26T14:27:14;9.27;;;4.18;;
46815;SDS011;32787;53.316;8.670;2022-10-26T14:29:41;12.27;;;4.45;;
46815;SDS011;32787;53.316;8.670;2022-10-26T14:34:46;10.07;;;4.00;;
46815;SDS011;32787;53.316;8.670;2022-10-26T14:37:11;9.55;;;3.92;;
46815;SDS011;32787;53.316;8.670;2022-10-26T14:39:52;9.27;;;4.43;;
46815;SDS011;32787;53.316;8.670;2022-10-26T14:44:54;11.30;;;4.30;;
46815;SDS011;32787;53.316;8.670;2022-10-26T14:47:26;10.25;;;4.20;;
46815;SDS011;32787;53.316;8.670;2022-10-26T14:49:53;9.30;;;4.22;;
46815;SDS011;32787;53.316;8.670;2022-10-26T14:52:33;7.07;;;3.75;;
46815;SDS011;32787;53.316;8.670;2022-10-26T14:55:02;11.13;;;4.68;;
46815;SDS011;32787;53.316;8.670;2022-10-26T14:57:31;11.23;;;4.63;;
46815;SDS011;32787;53.316;8.670;2022-10-26T15:00:03;9.23;;;4.72;;
46815;SDS011;32787;53.316;8.670;2022-10-26T15:02:35;13.90;;;4.18;;
46815;SDS011;32787;53.316;8.670;2022-10-26T15:05:20;12.35;;;4.05;;
46815;SDS011;32787;53.316;8.670;2022-10-26T15:07:52;9.05;;;3.83;;
46815;SDS011;32787;53.316;8.670;2022-10-26T15:15:39;8.88;;;3.70;;
46815;SDS011;32787;53.316;8.670;2022-10-26T15:18:05;7.05;;;3.35;;
46815;SDS011;32787;53.316;8.670;2022-10-26T15:20:47;10.90;;;3.35;;
46815;SDS011;32787;53.316;8.670;2022-10-26T15:25:40;11.68;;;2.85;;
46815;SDS011;32787;53.316;8.670;2022-10-26T15:38:31;7.68;;;3.10;;
46815;SDS011;32787;53.316;8.670;2022-10-26T15:40:58;8.57;;;3.00;;
46815;SDS011;32787;53.316;8.670;2022-10-26T15:43:23;7.63;;;3.03;;
46815;SDS011;32787;53.316;8.670;2022-10-26T15:45:49;8.07;;;2.90;;
46815;SDS011;32787;53.316;8.670;2022-10-26T15:48:23;6.72;;;3.03;;
46815;SDS011;32787;53.316;8.670;2022-10-26T15:50:53;8.55;;;2.92;;
46815;SDS011;32787;53.316;8.670;2022-10-26T15:53:20;6.95;;;3.10;;
46815;SDS011;32787;53.316;8.670;2022-10-26T15:55:47;8.35;;;3.10;;
46815;SDS011;32787;53.316;8.670;2022-10-26T15:58:15;10.40;;;3.70;;
46815;SDS011;32787;53.316;8.670;2022-10-26T16:00:41;9.77;;;4.10;;
46815;SDS011;32787;53.316;8.670;2022-10-26T16:03:11;13.07;;;4.05;;
46815;SDS011;32787;53.316;8.670;2022-10-26T16:05:39;9.25;;;4.05;;
46815;SDS011;32787;53.316;8.670;2022-10-26T16:08:05;9.82;;;3.65;;
46815;SDS011;32787;53.316;8.670;2022-10-26T16:10:33;11.70;;;4.10;;
46815;SDS011;32787;53.316;8.670;2022-10-26T16:12:59;9.02;;;3.42;;
46815;SDS011;32787;53.316;8.670;2022-10-26T16:15:24;15.13;;;3.92;;
46815;SDS011;32787;53.316;8.670;2022-10-26T16:17:50;9.75;;;3.30;;
46815;SDS011;32787;53.316;8.670;2022-10-26T16:20:19;6.88;;;3.63;;
46815;SDS011;32787;53.316;8.670;2022-10-26T16:22:51;10.48;;;3.40;;
46815;SDS011;32787;53.316;8.670;2022-10-26T16:25:18;10.10;;;4.20;;
46815;SDS011;32787;53.316;8.670;2022-10-26T16:27:46;13.45;;;4.13;;
46815;SDS011;32787;53.316;8.670;2022-10-26T16:30:13;9.55;;;3.63;;
46815;SDS011;32787;53.316;8.670;2022-10-26T16:32:39;9.13;;;4.07;;
46815;SDS011;32787;53.316;8.670;2022-10-26T16:35:06;9.55;;;3.50;;
46815;SDS011;32787;53.316;8.670;2022-10-26T16:37:32;10.05;;;4.43;;
46815;SDS011;32787;53.316;8.670;2022-10-26T16:39:58;10.95;;;4.20;;
46815;SDS011;32787;53.316;8.670;2022-10-26T16:42:24;17.05;;;4.93;;
46815;SDS011;32787;53.316;8.670;2022-10-26T16:44:49;9.85;;;4.38;;
46815;SDS011;32787;53.316;8.670;2022-10-26T16:47:15;15.57;;;5.22;;
46815;SDS011;32787;53.316;8.670;2022-10-26T16:49:41;9.82;;;4.47;;
46815;SDS011;32787;53.316;8.670;2022-10-26T16:52:10;10.93;;;4.25;;
46815;SDS011;32787;53.316;8.670;2022-10-26T16:54:36;9.17;;;4.30;;
46815;SDS011;32787;53.316;8.670;2022-10-26T16:57:02;10.15;;;4.57;;
46815;SDS011;32787;53.316;8.670;2022-10-26T16:59:28;10.93;;;4.45;;
46815;SDS011;32787;53.316;8.670;2022-10-26T17:01:54;8.63;;;4.25;;
46815;SDS011;32787;53.316;8.670;2022-10-26T17:04:19;14.25;;;4.20;;
46815;SDS011;32787;53.316;8.670;2022-10-26T17:06:45;12.52;;;4.00;;
46815;SDS011;32787;53.316;8.670;2022-10-26T17:09:11;9.73;;;4.18;;
46815;SDS011;32787;53.316;8.670;2022-10-26T17:11:36;7.50;;;3.83;;
46815;SDS011;32787;53.316;8.670;2022-10-26T17:14:02;9.90;;;3.90;;
46815;SDS011;32787;53.316;8.670;2022-10-26T17:16:27;10.30;;;4.65;;
46815;SDS011;32787;53.316;8.670;2022-10-26T17:18:53;9.70;;;4.25;;
46815;SDS011;32787;53.316;8.670;2022-10-26T17:21:25;11.63;;;4.95;;
46815;SDS011;32787;53.316;8.670;2022-10-26T17:23:56;8.35;;;4.22;;
46815;SDS011;32787;53.316;8.670;2022-10-26T17:26:22;8.77;;;4.20;;
46815;SDS011;32787;53.316;8.670;2022-10-26T17:28:54;11.10;;;4.78;;
46815;SDS011;32787;53.316;8.670;2022-10-26T17:31:21;9.50;;;4.90;;
46815;SDS011;32787;53.316;8.670;2022-10-26T17:33:48;9.05;;;4.43;;
46815;SDS011;32787;53.316;8.670;2022-10-26T17:36:15;11.60;;;5.18;;
46815;SDS011;32787;53.316;8.670;2022-10-26T17:38:44;10.00;;;4.35;;
46815;SDS011;32787;53.316;8.670;2022-10-26T17:41:12;10.52;;;5.00;;
46815;SDS011;32787;53.316;8.670;2022-10-26T17:43:40;8.20;;;3.97;;